McKinney, Texas
Current Conditions -  °F | °C
As of 12:53 PM on Sunday 23 Nov 2014 (Local Time) from KTKI Reporting Station
Clear Clear  
Wind Chill: 72°   Ceiling: Unl
Heat Index: 72°   Visibility: 10mi
Dew Point: 48°   Wind: 15mph
Humidity: 43%   Direction: 230°SW
Pressure: 29.39"   Gusts: NA
Location:  33.2°N, 96.61°W
Report Text: KTKI 231853Z 23013KT 10SM CLR 22/09 A2939 RMK AO2 SLP952 T02220089
Loading
Personal Weather Stations






























Interactive Weather Map New forecast layout! Learn more

10-Day Weather Forecast

Advertisements
Track Severe Weather on mobile